Time;durP1;ratioP1;P1;durP2;ratioP2;P2;SDS_P1;SDS_P2;PMS_P1;PMS_P2;Temp;Humidity;BMP_temperature;BMP_pressure;BME280_temperature;BME280_humidity;BME280_pressure;Samples;Min_cycle;Max_cycle;Signal;HPM_P1;HPM_P2
2022/10/01 00:00:48;;;;;;;7.47;6.13;;;;;;;9.07;96.34;100397.13;4977168;28;20588;-45
2022/10/01 00:03:14;;;;;;;8.93;6.68;;;;;;;9.01;96.41;100400.06;4980087;28;20693;-46
2022/10/01 00:05:39;;;;;;;13.48;7.15;;;;;;;8.98;96.64;100393.00;4980029;28;20169;-44
2022/10/01 00:08:04;;;;;;;9.68;6.15;;;;;;;8.96;96.54;100388.66;4978055;28;20182;-49
2022/10/01 00:10:30;;;;;;;7.32;6.63;;;;;;;8.94;96.76;100379.81;4979618;28;20202;-46
2022/10/01 00:12:57;;;;;;;7.65;6.25;;;;;;;8.95;96.84;100379.78;4981830;28;20608;-46
2022/10/01 00:15:25;;;;;;;7.28;6.63;;;;;;;8.99;96.49;100383.22;4974869;28;20221;-46
2022/10/01 00:17:51;;;;;;;7.10;6.40;;;;;;;9.00;96.70;100383.13;4972382;28;20268;-47
2022/10/01 00:20:17;;;;;;;6.80;6.10;;;;;;;8.95;96.59;100374.44;4981069;28;20209;-45
2022/10/01 00:22:43;;;;;;;9.48;6.88;;;;;;;8.93;96.75;100365.59;4981597;28;20178;-46
2022/10/01 00:25:09;;;;;;;10.43;7.10;;;;;;;8.91;97.07;100370.13;4970905;28;20742;-45
2022/10/01 00:27:34;;;;;;;7.00;6.40;;;;;;;8.91;96.98;100363.91;4974494;28;20280;-45
2022/10/01 00:30:02;;;;;;;7.60;6.80;;;;;;;8.88;97.12;100359.56;4977813;28;20235;-46
2022/10/01 00:32:31;;;;;;;7.07;6.05;;;;;;;8.97;96.87;100356.53;4977779;28;20182;-46
2022/10/01 00:35:01;;;;;;;6.00;5.50;;;;;;;8.95;96.60;100355.72;4974788;28;20261;-45
2022/10/01 00:37:27;;;;;;;7.25;6.55;;;;;;;8.96;96.47;100344.09;4981292;28;20178;-46
2022/10/01 00:39:52;;;;;;;7.43;6.30;;;;;;;8.96;96.56;100343.22;4977770;28;22676;-46
2022/10/01 00:42:28;;;;;;;7.82;6.35;;;;;;;8.91;96.48;100339.88;4984872;28;20216;-47
2022/10/01 00:44:54;;;;;;;6.75;6.07;;;;;;;8.94;96.42;100337.94;4978205;28;20198;-45
2022/10/01 00:47:39;;;;;;;6.28;5.68;;;;;;;8.92;96.46;100331.81;4979149;28;20185;-46
2022/10/01 00:50:21;;;;;;;7.00;5.78;;;;;;;8.93;96.61;100333.53;4984817;28;20205;-44
2022/10/01 00:52:53;;;;;;;6.47;5.28;;;;;;;8.94;96.43;100318.38;4978333;28;20187;-46
2022/10/01 00:55:33;;;;;;;8.15;4.75;;;;;;;8.93;96.35;100330.88;4980497;28;20940;-45
2022/10/01 00:57:59;;;;;;;5.40;4.90;;;;;;;9.00;95.71;100320.81;4979532;28;20173;-46
2022/10/01 01:00:24;;;;;;;5.90;5.03;;;;;;;8.93;95.70;100317.50;4979455;28;20241;-46
2022/10/01 01:02:50;;;;;;;6.72;4.22;;;;;;;9.03;95.61;100312.66;4981901;28;20595;-46
2022/10/01 01:05:16;;;;;;;4.65;3.90;;;;;;;9.05;95.08;100308.13;4979703;28;20178;-46
2022/10/01 01:07:46;;;;;;;4.57;4.18;;;;;;;9.10;94.79;100307.97;4974651;28;20194;-44
2022/10/01 01:10:18;;;;;;;6.20;4.10;;;;;;;9.09;94.61;100309.75;4977499;28;20987;-47
2022/10/01 01:13:05;;;;;;;6.47;3.75;;;;;;;9.13;94.22;100298.00;4983180;28;20194;-44
2022/10/01 01:15:39;;;;;;;5.28;3.90;;;;;;;9.10;94.19;100299.94;4979089;28;20744;-46
2022/10/01 01:18:23;;;;;;;7.53;3.38;;;;;;;9.14;94.00;100283.72;4988560;28;20608;-46
2022/10/01 01:21:11;;;;;;;3.83;3.30;;;;;;;9.18;93.60;100290.69;4975191;28;20243;-47
2022/10/01 01:23:54;;;;;;;4.55;3.15;;;;;;;9.21;93.26;100285.19;4989361;28;20718;-50
2022/10/01 01:26:49;;;;;;;3.58;3.13;;;;;;;9.26;93.12;100275.16;4987757;28;20186;-47
2022/10/01 01:29:25;;;;;;;3.42;2.88;;;;;;;9.22;92.99;100273.56;4981974;28;20233;-47
2022/10/01 01:31:56;;;;;;;3.95;2.45;;;;;;;9.25;92.62;100283.28;4979042;28;20209;-50
2022/10/01 01:34:25;;;;;;;3.35;3.05;;;;;;;9.21;92.91;100268.28;4976614;28;20660;-48
2022/10/01 01:36:58;;;;;;;3.75;2.90;;;;;;;9.27;92.59;100268.00;4984596;28;20189;-47
2022/10/01 01:39:27;;;;;;;4.72;2.92;;;;;;;9.30;92.31;100265.22;4989766;28;20181;-46
2022/10/01 01:41:58;;;;;;;4.47;2.90;;;;;;;9.27;92.08;100260.88;4985593;28;20440;-44
2022/10/01 01:44:29;;;;;;;6.13;3.00;;;;;;;9.32;92.11;100257.16;4978248;28;20206;-48
2022/10/01 01:46:56;;;;;;;3.17;2.60;;;;;;;9.34;91.79;100247.28;4974726;28;20182;-46
2022/10/01 01:49:22;;;;;;;3.13;2.65;;;;;;;9.34;91.93;100242.78;4978700;28;20178;-48
2022/10/01 01:52:12;;;;;;;3.25;2.42;;;;;;;9.31;91.97;100237.53;4979373;28;20221;-47
2022/10/01 01:54:38;;;;;;;3.25;2.65;;;;;;;9.37;91.84;100239.09;4974059;28;20194;-50
2022/10/01 01:57:05;;;;;;;2.88;2.67;;;;;;;9.30;92.20;100235.81;4973672;28;20705;-48
2022/10/01 01:59:33;;;;;;;3.88;2.88;;;;;;;9.36;92.07;100229.31;4977385;28;20183;-50
2022/10/01 02:01:59;;;;;;;3.35;2.60;;;;;;;9.33;91.95;100225.00;4983759;28;20181;-49
2022/10/01 02:04:34;;;;;;;3.15;2.67;;;;;;;9.40;92.21;100214.91;4986684;28;20711;-51
2022/10/01 02:07:02;;;;;;;3.67;2.70;;;;;;;9.39;91.95;100203.34;4982189;28;20268;-48
2022/10/01 02:10:07;;;;;;;3.70;2.95;;;;;;;9.39;92.28;100207.81;4978857;28;20215;-47
2022/10/01 02:13:00;;;;;;;3.03;2.70;;;;;;;9.37;92.20;100202.53;4978835;28;20189;-48
2022/10/01 02:16:03;;;;;;;2.90;2.58;;;;;;;9.40;92.34;100191.72;4979582;28;20276;-53
2022/10/01 02:18:59;;;;;;;3.47;2.80;;;;;;;9.36;92.62;100189.22;4975770;28;20200;-48
2022/10/01 02:21:37;;;;;;;3.42;2.63;;;;;;;9.31;93.05;100185.91;4978505;28;20198;-50
2022/10/01 02:24:38;;;;;;;3.30;3.00;;;;;;;9.24;93.42;100186.16;4977862;28;20338;-50
2022/10/01 02:27:12;;;;;;;3.33;3.03;;;;;;;9.31;93.44;100175.19;4980492;28;20193;-49
2022/10/01 02:29:39;;;;;;;4.07;3.08;;;;;;;9.26;93.57;100173.59;4983184;28;20212;-51
2022/10/01 02:32:07;;;;;;;3.67;3.38;;;;;;;9.26;93.83;100168.25;4984866;28;20177;-49
2022/10/01 02:34:33;;;;;;;3.40;2.83;;;;;;;9.24;94.07;100163.91;4980680;28;20237;-48
2022/10/01 02:37:03;;;;;;;4.63;3.08;;;;;;;9.27;94.18;100161.09;4980521;28;20596;-45
2022/10/01 02:39:32;;;;;;;5.43;3.22;;;;;;;9.36;94.03;100158.03;4990198;28;20556;-45
2022/10/01 02:41:59;;;;;;;3.15;2.88;;;;;;;9.29;94.16;100148.53;4978124;28;20205;-43
2022/10/01 02:44:36;;;;;;;5.00;2.80;;;;;;;9.30;94.14;100152.97;4976675;28;20273;-45
2022/10/01 02:47:17;;;;;;;3.33;3.03;;;;;;;9.31;94.19;100148.47;4974569;28;20744;-44
2022/10/01 02:49:43;;;;;;;4.50;3.22;;;;;;;9.29;94.41;100137.84;4982444;28;20216;-44
2022/10/01 02:52:21;;;;;;;4.85;3.00;;;;;;;9.31;94.41;100135.97;4983249;28;20190;-45
2022/10/01 02:55:11;;;;;;;3.58;3.05;;;;;;;9.37;94.21;100148.22;4982840;28;20196;-45
2022/10/01 02:57:37;;;;;;;3.90;3.13;;;;;;;9.34;94.21;100118.94;4977239;28;20284;-46
2022/10/01 03:00:09;;;;;;;3.28;2.97;;;;;;;9.35;94.36;100116.19;4978238;28;20220;-46
2022/10/01 03:02:35;;;;;;;5.10;3.42;;;;;;;9.37;94.34;100118.78;4977526;28;20213;-44
2022/10/01 03:05:01;;;;;;;3.83;3.00;;;;;;;9.35;94.34;100113.50;4979726;28;20236;-46
2022/10/01 03:07:29;;;;;;;4.10;3.10;;;;;;;9.33;94.61;100110.03;4977755;28;20209;-43
2022/10/01 03:09:54;;;;;;;4.50;3.30;;;;;;;9.33;94.67;100120.72;4979813;28;20205;-43
2022/10/01 03:12:22;;;;;;;4.85;2.90;;;;;;;9.33;94.68;100112.72;4977506;28;20200;-49
2022/10/01 03:14:47;;;;;;;5.93;3.53;;;;;;;9.36;94.73;100109.91;4982799;28;20193;-49
2022/10/01 03:17:14;;;;;;;7.97;3.40;;;;;;;9.35;95.10;100120.66;4979347;28;20633;-48
2022/10/01 03:19:40;;;;;;;3.60;3.08;;;;;;;9.41;94.51;100115.06;4973594;28;20209;-48
2022/10/01 03:22:06;;;;;;;4.72;3.35;;;;;;;9.44;94.58;100112.22;4971899;28;20217;-47
2022/10/01 03:24:32;;;;;;;6.05;3.28;;;;;;;9.38;94.93;100107.16;4973669;28;20703;-48
2022/10/01 03:26:57;;;;;;;7.45;2.90;;;;;;;9.39;94.80;100112.44;4978185;28;20182;-48
2022/10/01 03:29:24;;;;;;;4.00;3.20;;;;;;;9.38;94.78;100110.72;4986020;28;20225;-48
2022/10/01 03:31:49;;;;;;;6.07;3.42;;;;;;;9.43;94.66;100110.50;4984490;28;20193;-48
2022/10/01 03:34:15;;;;;;;4.22;3.20;;;;;;;9.47;94.75;100107.63;4986091;28;20189;-50
2022/10/01 03:36:41;;;;;;;3.30;2.92;;;;;;;9.49;94.45;100105.75;4976783;28;20186;-48
2022/10/01 03:39:06;;;;;;;3.63;2.85;;;;;;;9.49;94.54;100096.88;4978682;28;20252;-46
2022/10/01 03:41:32;;;;;;;3.65;3.35;;;;;;;9.51;94.56;100094.09;4984227;28;20597;-47
2022/10/01 03:43:57;;;;;;;5.90;3.30;;;;;;;9.56;94.53;100102.81;4986040;28;20219;-48
2022/10/01 03:46:25;;;;;;;4.30;3.10;;;;;;;9.60;94.27;100096.34;4977540;28;20224;-49
2022/10/01 03:48:51;;;;;;;3.80;2.90;;;;;;;9.67;93.88;100082.63;4976389;28;20178;-46
2022/10/01 03:51:19;;;;;;;5.72;3.03;;;;;;;9.76;93.43;100089.38;4971527;28;20210;-46
2022/10/01 03:53:46;;;;;;;6.35;3.00;;;;;;;9.80;93.13;100087.41;4989318;28;20193;-45
2022/10/01 03:56:12;;;;;;;3.03;2.80;;;;;;;9.81;92.76;100084.66;4974681;28;20188;-48
2022/10/01 03:58:37;;;;;;;4.18;2.92;;;;;;;9.84;92.34;100084.53;4973175;28;20190;-46
2022/10/01 04:01:03;;;;;;;4.40;2.80;;;;;;;9.82;92.21;100085.53;4985427;28;20224;-45
2022/10/01 04:03:29;;;;;;;4.75;3.15;;;;;;;9.88;91.85;100080.78;4990784;28;20288;-45
2022/10/01 04:05:56;;;;;;;3.40;3.10;;;;;;;9.86;91.87;100074.63;4985059;28;20205;-45
2022/10/01 04:08:22;;;;;;;3.13;2.88;;;;;;;9.84;91.94;100068.47;4980526;28;20173;-46
2022/10/01 04:10:48;;;;;;;4.38;2.88;;;;;;;9.88;91.69;100062.03;4980811;28;20621;-47
2022/10/01 04:13:13;;;;;;;3.22;2.92;;;;;;;9.94;91.58;100068.03;4975177;28;20174;-46
2022/10/01 04:15:39;;;;;;;4.72;2.85;;;;;;;9.92;91.50;100077.94;4986633;28;20201;-46
2022/10/01 04:18:05;;;;;;;3.65;2.60;;;;;;;9.88;91.54;100075.41;4979449;28;20272;-44
2022/10/01 04:20:32;;;;;;;4.95;2.85;;;;;;;9.87;91.54;100068.31;4978505;28;20223;-46
2022/10/01 04:22:58;;;;;;;4.22;2.63;;;;;;;9.88;91.48;100063.81;4990796;28;20645;-46
2022/10/01 04:25:24;;;;;;;4.75;2.90;;;;;;;9.88;91.45;100058.47;4993165;28;20186;-46
2022/10/01 04:28:01;;;;;;;3.03;2.72;;;;;;;9.85;91.54;100054.16;4982063;28;20228;-49
2022/10/01 04:30:32;;;;;;;5.40;3.10;;;;;;;9.85;91.57;100054.16;4981047;28;20214;-47
2022/10/01 04:32:59;;;;;;;3.67;2.88;;;;;;;9.79;91.52;100043.72;4981345;28;20243;-48
2022/10/01 04:35:25;;;;;;;5.78;2.90;;;;;;;9.84;91.74;100052.44;4980329;28;20261;-49
2022/10/01 04:37:55;;;;;;;2.80;2.58;;;;;;;9.82;91.57;100045.41;4979857;28;20197;-47
2022/10/01 04:40:20;;;;;;;3.45;2.83;;;;;;;9.80;91.91;100044.63;4986645;28;20244;-47
2022/10/01 04:42:46;;;;;;;5.70;2.80;;;;;;;9.80;91.81;100047.28;4984530;28;20186;-48
2022/10/01 04:45:12;;;;;;;3.40;2.70;;;;;;;9.82;91.63;100046.28;4978473;28;20201;-48
2022/10/01 04:47:38;;;;;;;4.05;2.58;;;;;;;9.80;92.01;100029.44;4974220;28;20186;-48
2022/10/01 04:50:03;;;;;;;7.47;2.42;;;;;;;9.77;92.17;100034.03;4979191;28;20202;-47
2022/10/01 04:52:29;;;;;;;3.05;2.83;;;;;;;9.77;92.51;100034.03;4978220;28;20197;-47
2022/10/01 04:54:54;;;;;;;3.20;2.90;;;;;;;9.72;92.67;100031.59;4989877;28;20297;-48
2022/10/01 04:57:20;;;;;;;4.45;3.38;;;;;;;9.71;93.70;100040.56;4983248;28;20190;-48
2022/10/01 04:59:46;;;;;;;3.78;3.08;;;;;;;9.66;94.37;100023.84;4975865;28;20311;-48
2022/10/01 05:02:12;;;;;;;3.35;2.97;;;;;;;9.53;95.32;100028.91;4982629;28;20189;-48
2022/10/01 05:04:38;;;;;;;6.18;3.08;;;;;;;9.47;96.28;100021.19;4979783;28;20217;-46
2022/10/01 05:07:04;;;;;;;4.47;3.15;;;;;;;9.45;97.25;100015.91;4980820;28;20723;-46
2022/10/01 05:09:29;;;;;;;4.68;3.15;;;;;;;9.42;98.00;100008.06;5016464;23;20600;-49
2022/10/01 05:11:55;;;;;;;6.00;3.75;;;;;;;9.32;98.83;100008.53;5000007;28;20221;-47
2022/10/01 05:14:20;;;;;;;3.92;3.53;;;;;;;9.28;99.89;100000.66;4974109;28;20269;-47
2022/10/01 05:16:46;;;;;;;4.75;3.92;;;;;;;9.25;100.00;99999.94;4974339;28;20201;-47
2022/10/01 05:19:12;;;;;;;5.13;4.18;;;;;;;9.22;100.00;99984.88;4974307;28;20170;-52
2022/10/01 05:21:37;;;;;;;7.05;3.95;;;;;;;9.14;100.00;99971.03;4974139;28;20198;-51
2022/10/01 05:24:04;;;;;;;6.65;3.97;;;;;;;9.07;100.00;99975.78;4974258;28;20797;-46
2022/10/01 05:26:30;;;;;;;4.60;4.15;;;;;;;9.03;100.00;99963.50;4973046;28;20273;-50
2022/10/01 05:28:59;;;;;;;5.07;4.00;;;;;;;9.03;100.00;99965.28;4965866;28;20623;-49
2022/10/01 05:31:25;;;;;;;6.10;4.22;;;;;;;9.00;100.00;99955.63;4954476;28;20305;-47
2022/10/01 05:33:50;;;;;;;5.75;4.22;;;;;;;8.99;100.00;99953.91;4954372;28;20186;-48
2022/10/01 05:36:16;;;;;;;6.25;4.63;;;;;;;9.01;100.00;99960.03;4954497;28;20535;-48
2022/10/01 05:38:42;;;;;;;5.00;4.07;;;;;;;8.98;100.00;99948.63;4969358;28;20182;-45
2022/10/01 05:41:07;;;;;;;5.70;4.45;;;;;;;8.95;100.00;99944.28;4972408;28;20206;-48
2022/10/01 05:43:33;;;;;;;8.43;4.70;;;;;;;8.98;100.00;99940.59;4957387;28;20206;-48
2022/10/01 05:46:00;;;;;;;5.70;4.90;;;;;;;8.93;100.00;99940.81;4969505;28;21072;-49
2022/10/01 05:48:26;;;;;;;6.80;4.85;;;;;;;8.91;100.00;99937.34;4966925;28;20182;-48
2022/10/01 05:50:53;;;;;;;6.93;5.35;;;;;;;8.92;100.00;99922.19;4964286;28;20346;-47
2022/10/01 05:53:19;;;;;;;7.93;5.45;;;;;;;8.84;100.00;99928.75;4965726;28;20182;-49
2022/10/01 05:55:45;;;;;;;6.28;5.60;;;;;;;8.88;100.00;99926.81;4977199;28;20190;-47
2022/10/01 05:58:12;;;;;;;6.40;5.80;;;;;;;8.84;100.00;99919.88;4965250;28;20232;-48
2022/10/01 06:00:39;;;;;;;6.75;5.45;;;;;;;8.82;100.00;99916.41;4966057;28;20213;-48
2022/10/01 06:03:06;;;;;;;8.23;5.80;;;;;;;8.76;100.00;99917.53;4964801;28;20189;-49
2022/10/01 06:05:33;;;;;;;8.32;5.47;;;;;;;8.74;100.00;99911.41;4961526;28;20379;-47
2022/10/01 06:07:59;;;;;;;6.28;4.93;;;;;;;8.74;100.00;99902.53;4961974;28;20206;-50
2022/10/01 06:10:26;;;;;;;6.03;5.40;;;;;;;8.72;100.00;99910.59;4961477;28;20218;-47
2022/10/01 06:13:00;;;;;;;6.43;5.68;;;;;;;8.71;100.00;99892.84;4969059;28;20208;-50
2022/10/01 06:15:26;;;;;;;6.60;5.38;;;;;;;8.74;100.00;99899.84;4963167;28;20312;-47
2022/10/01 06:17:52;;;;;;;6.32;5.00;;;;;;;8.68;100.00;99892.13;4967592;28;20266;-48
2022/10/01 06:20:19;;;;;;;8.82;5.22;;;;;;;8.68;100.00;99882.31;4967644;28;20978;-49
2022/10/01 06:22:52;;;;;;;6.50;5.13;;;;;;;8.72;100.00;99880.34;4968358;28;20218;-48
2022/10/01 06:25:18;;;;;;;5.40;4.72;;;;;;;8.72;100.00;99880.34;4964521;28;20250;-49
2022/10/01 06:27:43;;;;;;;8.38;5.25;;;;;;;8.70;100.00;99867.06;4963383;28;20222;-49
2022/10/01 06:30:09;;;;;;;6.22;5.10;;;;;;;8.70;100.00;99871.56;4965642;28;20553;-47
2022/10/01 06:32:35;;;;;;;6.03;4.70;;;;;;;8.73;100.00;99884.78;4957446;28;20178;-48
2022/10/01 06:35:02;;;;;;;9.27;5.13;;;;;;;8.64;100.00;99872.72;4967721;28;20205;-48
2022/10/01 06:37:27;;;;;;;6.95;4.72;;;;;;;8.65;100.00;99869.94;4965213;28;20198;-47
2022/10/01 06:39:53;;;;;;;5.20;4.68;;;;;;;8.68;100.00;99866.31;4972274;28;20197;-48
2022/10/01 06:42:18;;;;;;;4.85;4.40;;;;;;;8.67;100.00;99861.88;4967595;28;20190;-45
2022/10/01 06:44:44;;;;;;;5.40;4.90;;;;;;;8.64;100.00;99864.69;4956102;28;20230;-48
2022/10/01 06:47:09;;;;;;;5.25;4.80;;;;;;;8.64;100.00;99862.91;4966543;28;20282;-47
2022/10/01 06:49:35;;;;;;;5.20;4.70;;;;;;;8.68;100.00;99857.41;4969178;28;20637;-47
2022/10/01 06:54:44;;;;;;;5.20;4.80;;;;;;;8.66;100.00;99850.34;4965531;28;20185;-47
2022/10/01 06:57:10;;;;;;;5.13;4.63;;;;;;;8.66;100.00;99850.34;4965757;28;20281;-47
2022/10/01 06:59:36;;;;;;;5.47;4.93;;;;;;;8.63;100.00;99850.47;4968941;28;20533;-46
2022/10/01 07:02:03;;;;;;;7.78;4.72;;;;;;;8.65;100.00;99845.91;4957538;28;20183;-48
2022/10/01 07:04:28;;;;;;;5.78;5.18;;;;;;;8.61;100.00;99847.00;4974652;28;20293;-46
2022/10/01 07:06:54;;;;;;;5.95;4.90;;;;;;;8.63;100.00;99841.59;4968839;28;20280;-47
2022/10/01 07:09:24;;;;;;;4.75;4.35;;;;;;;8.63;100.00;99834.44;4962482;28;20233;-47
2022/10/01 07:11:49;;;;;;;5.80;5.18;;;;;;;8.62;100.00;99830.06;4963622;28;20210;-47
2022/10/01 07:14:15;;;;;;;8.40;5.32;;;;;;;8.61;100.00;99838.97;4963776;28;20253;-48
2022/10/01 07:16:40;;;;;;;5.57;4.95;;;;;;;8.60;100.00;99831.94;4960847;28;20189;-47
2022/10/01 07:19:06;;;;;;;6.97;4.70;;;;;;;8.64;100.00;99830.00;4968260;28;20262;-48
2022/10/01 07:21:31;;;;;;;5.82;4.80;;;;;;;8.66;100.00;99822.78;4966480;28;20218;-49
2022/10/01 07:23:57;;;;;;;5.70;4.85;;;;;;;8.68;100.00;99818.25;4955155;28;20573;-47
2022/10/01 07:26:22;;;;;;;6.30;5.30;;;;;;;8.70;100.00;99820.81;4965936;28;20196;-48
2022/10/01 07:28:48;;;;;;;5.32;4.82;;;;;;;8.66;100.00;99812.09;4965806;28;20273;-48
2022/10/01 07:31:13;;;;;;;6.25;5.65;;;;;;;8.63;100.00;99813.09;4963239;28;20572;-48
2022/10/01 07:33:39;;;;;;;6.30;5.68;;;;;;;8.64;100.00;99809.50;4967964;28;20827;-48
2022/10/01 07:36:07;;;;;;;5.70;5.20;;;;;;;8.66;100.00;99796.94;4957663;28;20197;-49
2022/10/01 07:38:32;;;;;;;6.97;5.20;;;;;;;8.70;100.00;99805.66;4965110;28;20190;-50
2022/10/01 07:40:58;;;;;;;7.07;5.32;;;;;;;8.68;100.00;99807.56;4966690;28;20217;-48
2022/10/01 07:43:24;;;;;;;4.75;4.30;;;;;;;8.72;100.00;99802.91;4961869;28;20610;-50
2022/10/01 07:45:51;;;;;;;5.90;4.72;;;;;;;8.67;100.00;99800.47;4966783;28;20236;-48
2022/10/01 07:48:18;;;;;;;5.97;5.50;;;;;;;8.69;100.00;99792.41;4960052;28;20185;-48
2022/10/01 07:50:44;;;;;;;5.40;4.90;;;;;;;8.72;100.00;99795.75;4962963;28;20238;-49
2022/10/01 07:53:10;;;;;;;5.15;4.70;;;;;;;8.69;100.00;99798.59;4965017;28;20209;-49
2022/10/01 07:55:36;;;;;;;5.43;5.03;;;;;;;8.69;100.00;99798.59;4961622;28;20288;-47
2022/10/01 07:58:02;;;;;;;5.70;5.10;;;;;;;8.64;100.00;99801.47;4960606;28;20285;-49
2022/10/01 08:00:29;;;;;;;5.60;5.10;;;;;;;8.69;100.00;99787.06;4965246;28;20593;-49
2022/10/01 08:02:55;;;;;;;5.55;4.93;;;;;;;8.69;100.00;99787.91;4956889;28;20186;-48
2022/10/01 08:05:24;;;;;;;5.13;4.72;;;;;;;8.69;100.00;99792.41;4967470;28;20688;-48
2022/10/01 08:07:49;;;;;;;6.97;4.60;;;;;;;8.69;100.00;99787.06;4967694;28;20193;-48
2022/10/01 08:10:17;;;;;;;5.13;4.68;;;;;;;8.73;100.00;99792.16;4957944;28;20705;-48
2022/10/01 08:12:43;;;;;;;7.40;4.32;;;;;;;8.70;100.00;99770.94;4962397;28;20189;-49
2022/10/01 08:15:11;;;;;;;4.93;4.50;;;;;;;8.71;100.00;99785.19;4967158;28;20273;-49
2022/10/01 08:17:37;;;;;;;4.63;4.15;;;;;;;8.69;100.00;99768.34;4965169;28;20179;-47
2022/10/01 08:20:03;;;;;;;4.55;4.15;;;;;;;8.69;100.00;99771.88;4960811;28;20206;-46
2022/10/01 08:22:29;;;;;;;4.60;3.72;;;;;;;8.76;100.00;99748.44;4960577;28;20197;-50
2022/10/01 08:24:55;;;;;;;4.50;3.78;;;;;;;8.79;100.00;99762.50;4959112;28;20198;-48
2022/10/01 08:27:23;;;;;;;3.88;3.63;;;;;;;8.83;100.00;99760.53;4962158;28;20228;-48
2022/10/01 08:29:49;;;;;;;4.30;3.67;;;;;;;8.85;100.00;99751.53;4959193;28;20182;-48
2022/10/01 08:32:15;;;;;;;3.65;3.35;;;;;;;8.87;100.00;99744.28;4965911;28;20588;-48
2022/10/01 08:34:40;;;;;;;5.30;4.05;;;;;;;8.86;100.00;99763.06;4965193;28;20190;-48
2022/10/01 08:37:06;;;;;;;3.88;3.58;;;;;;;8.83;100.00;99750.75;4961395;28;20186;-47
2022/10/01 08:39:31;;;;;;;4.45;3.92;;;;;;;8.87;100.00;99764.78;4962576;28;20264;-49
2022/10/01 08:42:01;;;;;;;4.38;3.90;;;;;;;8.85;100.00;99755.97;4961010;28;20284;-47
2022/10/01 08:44:33;;;;;;;4.22;3.45;;;;;;;8.85;100.00;99746.19;4963373;28;20229;-47
2022/10/01 08:47:09;;;;;;;3.83;3.47;;;;;;;8.91;100.00;99757.50;4963108;28;20187;-47
2022/10/01 08:49:49;;;;;;;3.63;3.38;;;;;;;8.94;100.00;99752.84;4962940;28;20236;-47
2022/10/01 08:52:27;;;;;;;4.35;4.03;;;;;;;8.95;100.00;99748.41;4963450;28;20254;-48
2022/10/01 08:55:13;;;;;;;4.15;3.85;;;;;;;8.93;100.00;99751.16;4958910;28;20250;-48
2022/10/01 08:57:50;;;;;;;4.40;4.10;;;;;;;8.95;100.00;99749.28;4959401;28;20194;-48
2022/10/01 09:00:18;;;;;;;4.00;3.70;;;;;;;9.02;100.00;99747.16;4967018;28;20222;-47
2022/10/01 09:02:45;;;;;;;4.78;3.53;;;;;;;8.99;100.00;99742.84;4963198;28;20181;-45
2022/10/01 09:05:28;;;;;;;4.28;3.88;;;;;;;9.01;100.00;99740.97;4968263;28;20202;-46
2022/10/01 09:08:22;;;;;;;9.50;4.57;;;;;;;9.06;100.00;99740.72;4964430;28;20792;-46
2022/10/01 09:11:13;;;;;;;4.97;3.70;;;;;;;9.05;100.00;99737.19;4968641;28;20257;-46
2022/10/01 09:13:58;;;;;;;4.05;3.40;;;;;;;9.08;100.00;99734.34;4965648;28;20260;-46
2022/10/01 09:16:46;;;;;;;3.63;3.33;;;;;;;9.09;100.00;99743.22;4958813;28;20182;-48
2022/10/01 09:19:34;;;;;;;3.40;3.10;;;;;;;9.12;100.00;99734.19;4968648;28;20189;-47
2022/10/01 09:22:13;;;;;;;4.28;3.05;;;;;;;9.13;100.00;99734.13;4963670;28;20240;-47
2022/10/01 09:24:43;;;;;;;3.97;3.15;;;;;;;9.13;100.00;99736.81;4964692;28;20559;-48
2022/10/01 09:27:17;;;;;;;3.35;3.05;;;;;;;9.19;100.00;99738.31;4970240;28;20245;-46
2022/10/01 09:30:00;;;;;;;3.28;2.97;;;;;;;9.24;100.00;99744.28;4963166;28;20629;-47
2022/10/01 09:32:39;;;;;;;2.92;2.72;;;;;;;9.24;100.00;99738.94;4983072;28;20260;-47
2022/10/01 09:35:33;;;;;;;3.30;3.05;;;;;;;9.26;100.00;99737.91;4966668;28;20257;-46
2022/10/01 09:38:02;;;;;;;3.75;3.20;;;;;;;9.27;100.00;99736.09;4962708;28;20650;-46
2022/10/01 09:40:39;;;;;;;2.92;2.70;;;;;;;9.29;100.00;99739.56;4966238;28;20243;-47
2022/10/01 09:43:07;;;;;;;3.03;2.83;;;;;;;9.34;100.00;99732.19;4967388;28;20217;-47
2022/10/01 09:45:33;;;;;;;4.00;2.83;;;;;;;9.33;100.00;99729.59;4968391;28;20856;-48
2022/10/01 09:48:37;;;;;;;3.00;2.80;;;;;;;9.37;100.00;99729.34;4961715;28;20192;-47
2022/10/01 09:51:27;;;;;;;2.95;2.75;;;;;;;9.38;100.00;99736.44;4959769;28;20252;-46
2022/10/01 09:54:24;;;;;;;2.55;2.35;;;;;;;9.42;100.00;99738.03;4957387;28;20909;-48
2022/10/01 09:56:57;;;;;;;3.55;2.90;;;;;;;9.45;100.00;99721.81;4959468;28;20201;-48
2022/10/01 09:59:36;;;;;;;3.20;2.90;;;;;;;9.50;100.00;99718.91;4967675;28;20200;-49
2022/10/01 10:02:08;;;;;;;3.55;2.90;;;;;;;9.58;100.00;99729.22;4965000;28;20237;-46
2022/10/01 10:04:34;;;;;;;2.70;2.42;;;;;;;9.60;100.00;99720.16;4967609;28;20215;-47
2022/10/01 10:07:04;;;;;;;3.60;2.40;;;;;;;9.63;100.00;99721.81;4959557;28;20194;-47
2022/10/01 10:09:34;;;;;;;2.88;2.67;;;;;;;9.69;100.00;99721.50;4961606;28;20194;-47
2022/10/01 10:12:01;;;;;;;3.33;2.80;;;;;;;9.69;100.00;99721.50;4967153;28;20214;-48
2022/10/01 10:14:35;;;;;;;2.20;2.00;;;;;;;9.65;100.00;99715.44;4965739;28;20513;-48
2022/10/01 10:17:12;;;;;;;2.50;2.30;;;;;;;9.68;100.00;99720.59;4965141;28;20540;-46
2022/10/01 10:19:40;;;;;;;2.60;2.40;;;;;;;9.73;100.00;99711.47;4964881;28;20228;-46
2022/10/01 10:22:11;;;;;;;2.30;2.17;;;;;;;9.66;100.00;99724.31;4960519;28;20300;-47
2022/10/01 10:24:37;;;;;;;2.38;2.28;;;;;;;9.69;100.00;99722.34;4965715;28;20193;-46
2022/10/01 10:27:25;;;;;;;2.40;2.20;;;;;;;9.70;100.00;99720.53;4969475;28;20657;-46
2022/10/01 10:30:12;;;;;;;2.50;1.95;;;;;;;9.78;100.00;99717.47;4966490;28;20193;-46
2022/10/01 10:32:38;;;;;;;4.40;2.65;;;;;;;9.82;100.00;99719.03;4968701;28;20173;-44
2022/10/01 10:35:12;;;;;;;2.90;2.70;;;;;;;9.93;100.00;99707.72;4962913;28;20187;-43
2022/10/01 10:37:45;;;;;;;3.25;3.05;;;;;;;10.02;100.00;99707.28;4965259;28;20264;-42
2022/10/01 10:40:24;;;;;;;4.22;2.92;;;;;;;10.05;100.00;99723.16;4970059;28;20419;-43
2022/10/01 10:42:52;;;;;;;4.53;3.40;;;;;;;10.04;100.00;99724.97;4960304;28;20616;-46
2022/10/01 10:45:24;;;;;;;3.47;3.22;;;;;;;10.16;100.00;99725.25;4965336;28;20213;-46
2022/10/01 10:47:52;;;;;;;4.43;3.80;;;;;;;10.21;100.00;99726.75;4964718;28;20188;-46
2022/10/01 10:50:34;;;;;;;8.05;4.45;;;;;;;10.35;100.00;99727.81;4964819;28;20712;-45
2022/10/01 10:53:20;;;;;;;11.18;4.95;;;;;;;10.43;100.00;99728.25;4966919;28;20224;-43
2022/10/01 10:56:01;;;;;;;4.50;4.05;;;;;;;10.58;100.00;99721.16;4961138;28;20712;-44
2022/10/01 10:58:29;;;;;;;8.95;5.13;;;;;;;10.76;100.00;99722.84;4961874;28;20633;-44
2022/10/01 11:00:58;;;;;;;5.40;4.90;;;;;;;10.91;100.00;99715.72;4964662;28;20193;-45
2022/10/01 11:03:27;;;;;;;7.00;5.10;;;;;;;11.11;100.00;99712.75;4965659;28;20244;-44
2022/10/01 11:05:55;;;;;;;5.03;4.53;;;;;;;11.28;100.00;99710.88;4967914;28;20188;-45
2022/10/01 11:08:27;;;;;;;7.63;4.32;;;;;;;11.47;100.00;99710.66;4968012;28;20193;-45
2022/10/01 11:11:18;;;;;;;6.82;4.82;;;;;;;11.46;100.00;99698.22;4964522;28;20202;-46
2022/10/01 11:13:58;;;;;;;8.85;4.75;;;;;;;11.68;100.00;99695.97;4959208;28;20189;-45
2022/10/01 11:16:44;;;;;;;10.05;4.85;;;;;;;11.93;100.00;99694.47;4955837;28;20175;-43
2022/10/01 11:19:22;;;;;;;5.13;3.88;;;;;;;12.01;100.00;99692.19;4968850;28;20569;-45
2022/10/01 11:21:47;;;;;;;8.43;4.28;;;;;;;12.07;100.00;99698.97;4957228;28;20212;-44
2022/10/01 11:25:11;;;;;;;8.07;4.25;;;;;;;12.42;100.00;99687.81;4962864;28;20198;-47
2022/10/01 11:27:55;;;;;;;12.70;3.35;;;;;;;12.41;100.00;99681.59;4935544;28;20288;-46
2022/10/01 11:30:25;;;;;;;10.63;3.95;;;;;;;12.52;100.00;99679.06;4958935;28;20205;-47
2022/10/01 11:33:09;;;;;;;9.18;3.97;;;;;;;12.82;100.00;99688.78;4964551;28;20278;-46
2022/10/01 11:35:46;;;;;;;6.25;2.70;;;;;;;12.92;100.00;99678.28;4957316;28;20190;-45
2022/10/01 11:38:42;;;;;;;4.95;2.65;;;;;;;13.06;100.00;99675.53;4965452;28;20173;-44
2022/10/01 11:41:26;;;;;;;10.98;2.97;;;;;;;13.43;100.00;99678.47;4961058;28;20206;-46
2022/10/01 11:44:06;;;;;;;8.60;2.33;;;;;;;13.56;100.00;99675.78;4960247;28;20213;-44
2022/10/01 11:47:09;;;;;;;8.65;2.78;;;;;;;13.63;100.00;99670.84;4958901;28;20177;-46
2022/10/01 11:49:54;;;;;;;7.97;2.50;;;;;;;13.33;100.00;99666.59;4959855;28;20178;-44
2022/10/01 11:52:36;;;;;;;8.38;2.55;;;;;;;13.20;100.00;99675.47;4964910;28;20288;-43